createdAt,value
2022-08-03T00:00:27.932Z,86.08
2022-08-03T00:02:54.688Z,85.67
2022-08-03T00:05:21.465Z,85.22
2022-08-03T00:07:49.369Z,84.74
2022-08-03T00:10:16.707Z,84.03
2022-08-03T00:12:43.431Z,83.89
2022-08-03T00:15:15.068Z,84.31
2022-08-03T00:17:53.546Z,84.25
2022-08-03T00:20:24.424Z,84.25
2022-08-03T00:22:51.581Z,83.98
2022-08-03T00:25:18.306Z,84.32
2022-08-03T00:27:45.081Z,84.13
2022-08-03T00:30:11.912Z,84.18
2022-08-03T00:32:38.771Z,84.30
2022-08-03T00:35:18.039Z,84.40
2022-08-03T00:37:59.038Z,84.05
2022-08-03T00:40:25.772Z,83.76
2022-08-03T00:42:58.352Z,84.93
2022-08-03T00:45:30.260Z,84.90
2022-08-03T00:47:58.231Z,85.36
2022-08-03T00:50:26.778Z,85.38
2022-08-03T00:52:55.360Z,86.00
2022-08-03T00:55:22.377Z,85.67
2022-08-03T00:57:49.653Z,85.14
2022-08-03T01:00:20.644Z,84.87
2022-08-03T01:02:49.889Z,85.39
2022-08-03T01:05:18.509Z,85.72
2022-08-03T01:08:03.849Z,85.06
2022-08-03T01:10:55.654Z,85.68
2022-08-03T01:14:03.716Z,85.35
2022-08-03T01:16:35.958Z,85.46
2022-08-03T01:19:12.908Z,85.46
2022-08-03T01:21:47.970Z,85.61
2022-08-03T01:24:47.686Z,85.69
2022-08-03T01:27:31.488Z,86.05
2022-08-03T01:30:07.697Z,85.43
2022-08-03T01:33:03.031Z,85.71
2022-08-03T01:35:43.086Z,84.70
2022-08-03T01:38:18.424Z,84.26
2022-08-03T01:40:47.843Z,83.38
2022-08-03T01:43:58.887Z,82.64
2022-08-03T01:46:07.757Z,82.43
2022-08-03T01:48:36.504Z,81.65
2022-08-03T01:51:03.746Z,82.16
2022-08-03T01:53:33.826Z,81.82
2022-08-03T01:56:03.700Z,81.13
2022-08-03T01:58:32.556Z,80.95
2022-08-03T02:01:01.635Z,80.48
2022-08-03T02:03:31.844Z,80.54
2022-08-03T02:06:18.133Z,80.65
2022-08-03T02:08:49.299Z,79.87
2022-08-03T02:11:16.304Z,79.39
2022-08-03T02:13:44.628Z,78.48
2022-08-03T02:16:14.046Z,77.55
2022-08-03T02:18:42.320Z,77.02
2022-08-03T02:21:11.001Z,78.15
2022-08-03T02:23:38.784Z,78.44
2022-08-03T02:26:09.447Z,79.94
2022-08-03T02:28:40.841Z,80.01
2022-08-03T02:31:14.844Z,79.57
2022-08-03T02:33:44.807Z,79.80
2022-08-03T02:36:14.376Z,80.20
2022-08-03T02:38:43.486Z,80.50
2022-08-03T02:41:16.953Z,80.65
2022-08-03T02:44:06.056Z,81.18
2022-08-03T02:46:38.734Z,81.73
2022-08-03T02:49:49.891Z,81.88
2022-08-03T02:51:54.917Z,83.41
2022-08-03T02:54:25.036Z,84.02
2022-08-03T02:56:54.288Z,84.41
2022-08-03T02:59:22.280Z,84.58
2022-08-03T03:01:49.623Z,84.88
2022-08-03T03:04:17.014Z,85.08
2022-08-03T03:06:44.336Z,85.49
2022-08-03T03:09:14.816Z,85.24
2022-08-03T03:11:42.344Z,85.58
2022-08-03T03:14:13.447Z,85.60
2022-08-03T03:16:42.050Z,85.95
2022-08-03T03:19:11.485Z,86.46
2022-08-03T03:21:39.218Z,87.41
2022-08-03T03:24:08.070Z,87.73
2022-08-03T03:26:38.309Z,87.06
2022-08-03T03:29:07.596Z,87.22
2022-08-03T03:31:36.283Z,87.52
2022-08-03T03:34:03.923Z,87.87
2022-08-03T03:36:30.825Z,87.81
2022-08-03T03:38:57.699Z,87.74
2022-08-03T03:41:24.688Z,87.21
2022-08-03T03:43:51.435Z,87.05
2022-08-03T03:46:18.659Z,86.71
2022-08-03T03:48:45.567Z,85.52
2022-08-03T03:51:12.898Z,84.88
2022-08-03T03:53:39.766Z,84.26
2022-08-03T03:56:06.428Z,84.14
2022-08-03T03:58:33.390Z,83.50
2022-08-03T04:01:00.810Z,83.37
2022-08-03T04:03:27.867Z,82.76
2022-08-03T04:06:12.977Z,83.53
2022-08-03T04:09:18.984Z,84.10
2022-08-03T04:11:54.349Z,82.63
2022-08-03T04:14:25.908Z,81.69
2022-08-03T04:16:58.090Z,81.73
2022-08-03T04:19:33.343Z,83.12
2022-08-03T04:22:07.379Z,83.58
2022-08-03T04:25:03.201Z,84.61
2022-08-03T04:27:36.523Z,84.67
2022-08-03T04:30:05.846Z,84.88
2022-08-03T04:32:33.861Z,83.22
2022-08-03T04:35:00.772Z,82.75
2022-08-03T04:37:30.096Z,81.83
2022-08-03T04:40:01.753Z,84.24
2022-08-03T04:42:29.630Z,85.75
2022-08-03T04:45:01.070Z,82.29
2022-08-03T04:47:28.144Z,80.21
2022-08-03T04:49:55.789Z,80.89
2022-08-03T04:52:22.551Z,80.30
2022-08-03T04:54:50.934Z,79.54
2022-08-03T04:57:22.929Z,78.43
2022-08-03T05:00:02.584Z,78.32
2022-08-03T05:02:31.728Z,80.55
2022-08-03T05:04:59.108Z,77.93
2022-08-03T05:07:25.812Z,72.75
2022-08-03T05:09:57.701Z,75.66
2022-08-03T05:12:32.747Z,73.13
2022-08-03T05:15:00.386Z,67.98
2022-08-03T05:17:27.204Z,68.82
2022-08-03T05:19:54.473Z,66.85
2022-08-03T05:22:24.354Z,69.41
2022-08-03T05:24:51.171Z,67.67
2022-08-03T05:27:19.539Z,65.77
2022-08-03T05:29:47.378Z,66.38
2022-08-03T05:32:14.441Z,64.03
2022-08-03T05:34:41.570Z,62.45
2022-08-03T05:37:08.492Z,61.52
2022-08-03T05:39:36.083Z,61.68
2022-08-03T05:42:02.969Z,62.76
2022-08-03T05:44:29.845Z,56.62
2022-08-03T05:46:57.842Z,55.42
2022-08-03T05:49:24.503Z,56.12
2022-08-03T05:51:59.808Z,56.29
2022-08-03T05:54:56.677Z,55.45
2022-08-03T05:57:23.271Z,54.33
2022-08-03T05:59:57.865Z,51.80
2022-08-03T06:02:26.636Z,49.69
2022-08-03T06:04:53.522Z,49.86
2022-08-03T06:07:20.243Z,49.42
2022-08-03T06:10:35.601Z,48.33
2022-08-03T06:12:36.263Z,48.14
2022-08-03T06:15:04.668Z,47.85
2022-08-03T06:17:37.116Z,48.49
2022-08-03T06:20:04.810Z,47.62
2022-08-03T06:22:31.464Z,46.22
2022-08-03T06:24:58.823Z,45.83
2022-08-03T06:27:36.642Z,45.50
2022-08-03T06:30:05.178Z,44.69
2022-08-03T06:32:32.027Z,45.37
2022-08-03T06:34:58.694Z,44.89
2022-08-03T06:37:27.049Z,43.87
2022-08-03T06:39:54.253Z,44.45
2022-08-03T06:42:21.256Z,43.33
2022-08-03T06:44:50.017Z,43.66
2022-08-03T06:47:16.684Z,43.78
2022-08-03T06:49:43.501Z,43.21
2022-08-03T06:52:13.175Z,43.12
2022-08-03T06:54:59.814Z,43.74
2022-08-03T06:57:26.452Z,43.79
2022-08-03T07:00:09.450Z,42.89
2022-08-03T07:02:38.785Z,43.00
2022-08-03T07:05:06.898Z,43.36
2022-08-03T07:07:33.620Z,40.55
2022-08-03T07:10:00.272Z,41.50
2022-08-03T07:12:30.307Z,40.66
2022-08-03T07:15:01.344Z,39.86
2022-08-03T07:17:34.810Z,40.76
2022-08-03T07:20:05.480Z,39.58
2022-08-03T07:22:32.166Z,38.48
2022-08-03T07:24:59.240Z,38.12
2022-08-03T07:27:27.147Z,38.54
2022-08-03T07:29:54.167Z,37.24
2022-08-03T07:32:20.948Z,37.37
2022-08-03T07:34:47.621Z,37.44
2022-08-03T07:37:14.280Z,35.93
2022-08-03T07:39:40.884Z,35.78
2022-08-03T07:42:07.555Z,35.81
2022-08-03T07:44:34.293Z,35.42
2022-08-03T07:47:03.361Z,34.81
2022-08-03T07:49:30.552Z,35.02
2022-08-03T07:52:16.153Z,35.11
2022-08-03T07:54:43.010Z,34.62
2022-08-03T07:57:09.716Z,35.41
2022-08-03T07:59:56.693Z,34.40
2022-08-03T08:02:25.196Z,33.97
2022-08-03T08:04:51.928Z,34.37
2022-08-03T08:07:18.669Z,34.16
2022-08-03T08:09:47.367Z,34.16
2022-08-03T08:12:15.363Z,34.15
2022-08-03T08:14:45.853Z,32.97
2022-08-03T08:17:13.295Z,33.61
2022-08-03T08:19:49.716Z,32.91
2022-08-03T08:22:19.754Z,32.75
2022-08-03T08:24:57.029Z,32.47
2022-08-03T08:27:23.737Z,32.08
2022-08-03T08:29:55.355Z,31.77
2022-08-03T08:32:24.213Z,31.26
2022-08-03T08:34:51.097Z,31.32
2022-08-03T08:37:18.074Z,29.28
2022-08-03T08:39:44.693Z,30.80
2022-08-03T08:42:11.370Z,30.43
2022-08-03T08:44:38.172Z,29.02
2022-08-03T08:47:05.109Z,29.75
2022-08-03T08:49:35.836Z,30.18
2022-08-03T08:52:04.115Z,30.30
2022-08-03T08:54:52.205Z,30.22
2022-08-03T08:57:40.716Z,30.35
2022-08-03T09:00:15.092Z,29.88
2022-08-03T09:02:43.945Z,28.39
2022-08-03T09:05:15.882Z,29.44
2022-08-03T09:07:44.248Z,29.28
2022-08-03T09:10:13.816Z,28.98
2022-08-03T09:12:46.868Z,30.08
2022-08-03T09:15:24.973Z,28.91
2022-08-03T09:17:54.178Z,30.51
2022-08-03T09:20:23.395Z,29.44
2022-08-03T09:22:54.724Z,28.68
2022-08-03T09:25:33.905Z,28.28
2022-08-03T09:28:10.406Z,29.57
2022-08-03T09:30:39.407Z,29.12
2022-08-03T09:33:10.484Z,28.96
2022-08-03T09:35:59.961Z,29.13
2022-08-03T09:38:27.539Z,29.85
2022-08-03T09:40:59.494Z,27.64
2022-08-03T09:43:27.774Z,27.44
2022-08-03T09:46:04.826Z,27.95
2022-08-03T09:48:34.793Z,27.57
2022-08-03T09:51:12.899Z,27.74
2022-08-03T09:53:59.239Z,27.74
2022-08-03T09:56:47.476Z,27.79
2022-08-03T09:59:25.986Z,27.22
2022-08-03T10:01:53.229Z,27.20
2022-08-03T10:04:20.412Z,27.56
2022-08-03T10:07:09.422Z,28.17
2022-08-03T10:09:37.231Z,28.19
2022-08-03T10:12:11.701Z,27.65
2022-08-03T10:14:40.394Z,28.07
2022-08-03T10:17:07.085Z,28.18
2022-08-03T10:19:34.258Z,28.52
2022-08-03T10:22:19.250Z,27.54
2022-08-03T10:24:55.857Z,27.29
2022-08-03T10:27:27.929Z,27.70
2022-08-03T10:29:56.757Z,27.86
2022-08-03T10:32:30.517Z,29.10
2022-08-03T10:35:20.372Z,28.58
2022-08-03T10:38:00.256Z,28.42
2022-08-03T10:43:23.031Z,28.81
2022-08-03T10:45:51.173Z,28.44
2022-08-03T10:48:19.768Z,28.32
2022-08-03T10:50:48.670Z,27.55
2022-08-03T10:53:17.966Z,27.16
2022-08-03T10:56:05.792Z,28.31
2022-08-03T10:58:53.504Z,27.26
2022-08-03T11:02:01.305Z,27.83
2022-08-03T11:04:30.327Z,26.35
2022-08-03T11:07:16.459Z,27.22
2022-08-03T11:09:47.706Z,27.74
2022-08-03T11:12:32.260Z,27.79
2022-08-03T11:15:01.845Z,26.83
2022-08-03T11:17:28.650Z,27.17
2022-08-03T11:19:57.400Z,28.02
2022-08-03T11:22:25.681Z,27.60
2022-08-03T11:24:54.396Z,27.58
2022-08-03T11:27:23.550Z,28.06
2022-08-03T11:30:02.087Z,27.16
2022-08-03T11:32:37.718Z,27.14
2022-08-03T11:35:22.276Z,27.92
2022-08-03T11:38:03.289Z,27.93
2022-08-03T11:40:44.691Z,27.34
2022-08-03T11:43:30.778Z,27.88
2022-08-03T11:45:59.351Z,28.20
2022-08-03T11:48:29.189Z,27.42
2022-08-03T11:50:57.145Z,27.53
2022-08-03T11:53:24.952Z,27.40
2022-08-03T11:55:53.251Z,26.95
2022-08-03T11:59:16.631Z,26.43
2022-08-03T12:01:10.790Z,26.79
2022-08-03T12:03:37.683Z,26.50
2022-08-03T12:06:10.600Z,27.01
2022-08-03T12:08:37.323Z,27.71
2022-08-03T12:11:06.853Z,26.96
2022-08-03T12:14:45.162Z,26.16
2022-08-03T12:16:30.570Z,25.76
2022-08-03T12:18:59.977Z,26.79
2022-08-03T12:21:27.144Z,27.19
2022-08-03T12:24:04.828Z,27.74
2022-08-03T12:26:58.729Z,27.27
2022-08-03T12:29:26.654Z,27.10
2022-08-03T12:31:53.360Z,28.88
2022-08-03T12:34:19.998Z,27.60
2022-08-03T12:36:56.950Z,27.50
2022-08-03T12:39:25.375Z,27.34
2022-08-03T12:41:56.795Z,26.84
2022-08-03T12:44:35.782Z,27.22
2022-08-03T12:47:04.041Z,27.42
2022-08-03T12:49:53.958Z,27.73
2022-08-03T12:52:22.858Z,27.53
2022-08-03T12:54:56.654Z,27.04
2022-08-03T12:57:23.648Z,26.56
2022-08-03T12:59:53.251Z,27.01
2022-08-03T13:02:23.500Z,26.95
2022-08-03T13:04:52.006Z,28.03
2022-08-03T13:07:20.018Z,27.22
2022-08-03T13:09:49.643Z,26.75
2022-08-03T13:12:40.173Z,26.90
2022-08-03T13:15:08.770Z,27.41
2022-08-03T13:17:35.433Z,27.66
2022-08-03T13:20:06.237Z,27.22
2022-08-03T13:22:36.267Z,27.10
2022-08-03T13:25:03.758Z,28.32
2022-08-03T13:28:13.920Z,27.53
2022-08-03T13:30:30.103Z,27.72
2022-08-03T13:32:58.779Z,26.75
2022-08-03T13:35:25.693Z,26.69
2022-08-03T13:37:52.447Z,27.21
2022-08-03T13:40:19.160Z,27.17
2022-08-03T13:42:50.450Z,27.38
2022-08-03T13:45:17.169Z,26.99
2022-08-03T13:47:43.955Z,27.51
2022-08-03T13:50:10.744Z,27.79
2022-08-03T13:52:37.519Z,27.22
2022-08-03T13:55:06.630Z,26.94
2022-08-03T13:58:02.614Z,27.53
2022-08-03T14:00:27.555Z,27.82
2022-08-03T14:03:06.498Z,27.32
2022-08-03T14:05:39.428Z,26.96
2022-08-03T14:08:07.696Z,26.58
2022-08-03T14:10:39.132Z,27.91
2022-08-03T14:13:06.545Z,27.23
2022-08-03T14:15:37.867Z,26.18
2022-08-03T14:18:06.954Z,26.84
2022-08-03T14:20:37.127Z,26.85
2022-08-03T14:23:04.436Z,26.87
2022-08-03T14:25:43.415Z,28.27
2022-08-03T14:28:18.742Z,27.65
2022-08-03T14:30:46.124Z,28.03
2022-08-03T14:33:12.784Z,28.11
2022-08-03T14:35:39.482Z,27.13
2022-08-03T14:38:06.589Z,27.07
2022-08-03T14:40:33.657Z,28.09
2022-08-03T14:43:00.374Z,27.18
2022-08-03T14:45:27.032Z,27.79
2022-08-03T14:50:29.392Z,27.91
2022-08-03T14:50:45.484Z,28.84
2022-08-03T14:53:14.101Z,28.33
2022-08-03T14:55:50.682Z,27.73
2022-08-03T14:58:20.056Z,27.63
2022-08-03T15:00:48.749Z,27.79
2022-08-03T15:03:16.875Z,27.99
2022-08-03T15:05:43.976Z,27.33
2022-08-03T15:08:10.648Z,27.83
2022-08-03T15:10:44.549Z,27.25
2022-08-03T15:13:13.083Z,27.44
2022-08-03T15:15:40.435Z,26.78
2022-08-03T15:18:07.692Z,27.81
2022-08-03T15:20:49.912Z,27.75
2022-08-03T15:23:18.418Z,28.14
2022-08-03T15:26:29.035Z,28.24
2022-08-03T15:28:33.093Z,28.06
2022-08-03T15:31:00.980Z,28.24
2022-08-03T15:33:28.615Z,28.13
2022-08-03T15:35:56.611Z,27.36
2022-08-03T15:38:25.842Z,28.01
2022-08-03T15:40:54.762Z,27.68
2022-08-03T15:43:24.590Z,27.39
2022-08-03T15:46:19.113Z,28.21
2022-08-03T15:48:38.460Z,28.00
2022-08-03T15:51:05.512Z,28.58
2022-08-03T15:53:33.685Z,28.75
2022-08-03T15:56:03.251Z,28.16
2022-08-03T15:59:04.664Z,27.30
2022-08-03T16:01:20.419Z,28.96
2022-08-03T16:03:47.381Z,28.31
2022-08-03T16:06:14.153Z,27.33
2022-08-03T16:08:40.932Z,27.40
2022-08-03T16:11:07.736Z,26.49
2022-08-03T16:14:13.536Z,28.07
2022-08-03T16:16:21.101Z,26.34
2022-08-03T16:18:48.069Z,25.83
2022-08-03T16:21:19.413Z,25.19
2022-08-03T16:23:48.977Z,25.05
2022-08-03T16:26:15.800Z,24.85
2022-08-03T16:28:42.551Z,24.82
2022-08-03T16:31:09.261Z,27.30
2022-08-03T16:33:36.284Z,24.76
2022-08-03T16:36:05.826Z,25.23
2022-08-03T16:38:32.503Z,25.12
2022-08-03T16:40:59.171Z,24.62
2022-08-03T16:43:28.442Z,24.55
2022-08-03T16:45:55.153Z,25.04
2022-08-03T16:48:21.832Z,24.52
2022-08-03T16:50:48.660Z,24.33
2022-08-03T16:53:16.928Z,24.19
2022-08-03T16:55:53.612Z,24.65
2022-08-03T16:58:34.448Z,24.75
2022-08-03T17:01:24.617Z,25.36
2022-08-03T17:04:03.504Z,25.13
2022-08-03T17:06:36.576Z,25.67
2022-08-03T17:09:23.508Z,27.08
2022-08-03T17:11:51.332Z,27.89
2022-08-03T17:14:22.763Z,27.36
2022-08-03T17:16:52.663Z,28.56
2022-08-03T17:19:23.428Z,28.67
2022-08-03T17:21:59.799Z,30.64
2022-08-03T17:24:41.517Z,31.32
2022-08-03T17:28:42.241Z,32.67
2022-08-03T17:30:13.460Z,34.59
2022-08-03T17:32:56.603Z,32.25
2022-08-03T17:35:36.745Z,32.77
2022-08-03T17:38:10.350Z,31.27
2022-08-03T17:40:39.916Z,31.57
2022-08-03T17:44:14.168Z,31.49
2022-08-03T17:46:10.688Z,30.50
2022-08-03T17:48:41.321Z,31.99
2022-08-03T17:51:17.285Z,32.64
2022-08-03T17:53:53.733Z,33.78
2022-08-03T17:56:40.380Z,34.71
2022-08-03T17:59:51.750Z,38.00
2022-08-03T18:03:07.077Z,37.10
2022-08-03T18:06:10.988Z,37.90
2022-08-03T18:08:27.731Z,36.92
2022-08-03T18:11:03.267Z,40.05
2022-08-03T18:13:57.679Z,41.82
2022-08-03T18:16:30.132Z,43.18
2022-08-03T18:19:09.323Z,43.38
2022-08-03T18:22:03.168Z,43.03
2022-08-03T18:24:29.645Z,43.37
2022-08-03T18:26:57.270Z,43.93
2022-08-03T18:29:25.910Z,44.49
2022-08-03T18:32:03.415Z,45.48
2022-08-03T18:34:34.067Z,46.31
2022-08-03T18:37:04.290Z,46.52
2022-08-03T18:39:50.030Z,46.83
2022-08-03T18:42:20.364Z,47.14
2022-08-03T18:44:56.513Z,47.63
2022-08-03T18:47:51.959Z,48.05
2022-08-03T18:50:28.545Z,48.49
2022-08-03T18:53:19.643Z,49.35
2022-08-03T18:56:02.153Z,49.61
2022-08-03T18:58:52.224Z,50.79
2022-08-03T19:01:59.845Z,50.90
2022-08-03T19:04:34.780Z,51.01
2022-08-03T19:07:06.979Z,51.83
2022-08-03T19:09:49.139Z,52.60
2022-08-03T19:12:30.833Z,53.87
2022-08-03T19:15:05.344Z,54.10
2022-08-03T19:17:33.806Z,53.66
2022-08-03T19:20:08.501Z,54.40
2022-08-03T19:22:37.989Z,55.15
2022-08-03T19:25:06.445Z,55.51
2022-08-03T19:27:44.002Z,57.00
2022-08-03T19:30:21.956Z,57.92
2022-08-03T19:32:54.377Z,58.06
2022-08-03T19:35:46.961Z,58.52
2022-08-03T19:38:09.777Z,59.01
2022-08-03T19:40:42.168Z,59.71
2022-08-03T19:43:53.313Z,60.67
2022-08-03T19:46:30.188Z,61.36
2022-08-03T19:49:14.858Z,62.16
2022-08-03T19:51:58.599Z,62.41
2022-08-03T19:54:45.878Z,62.82
2022-08-03T19:57:24.608Z,63.59
2022-08-03T19:59:52.790Z,63.89
2022-08-03T20:02:26.205Z,64.13
2022-08-03T20:04:59.970Z,64.17
2022-08-03T20:07:30.870Z,64.62
2022-08-03T20:09:59.608Z,64.71
2022-08-03T20:12:29.208Z,64.61
2022-08-03T20:14:57.758Z,64.68
2022-08-03T20:17:55.075Z,65.00
2022-08-03T20:20:12.468Z,65.86
2022-08-03T20:22:45.649Z,66.09
2022-08-03T20:25:16.216Z,66.62
2022-08-03T20:28:07.002Z,67.17
2022-08-03T20:30:38.495Z,67.07
2022-08-03T20:33:09.215Z,66.95
2022-08-03T20:35:35.878Z,67.75
2022-08-03T20:38:04.783Z,67.87
2022-08-03T20:40:31.584Z,67.78
2022-08-03T20:42:59.839Z,68.34
2022-08-03T20:45:58.480Z,68.43
2022-08-03T20:48:18.053Z,68.33
2022-08-03T20:50:48.972Z,68.75
2022-08-03T20:53:45.705Z,69.33
2022-08-03T20:56:04.384Z,69.95
2022-08-03T20:58:31.229Z,70.51
2022-08-03T21:00:58.664Z,71.10
2022-08-03T21:06:15.058Z,72.32
2022-08-03T21:08:46.981Z,72.42
2022-08-03T21:11:44.315Z,73.26
2022-08-03T21:14:23.280Z,74.29
2022-08-03T21:16:52.039Z,74.00
2022-08-03T21:19:21.801Z,74.12
2022-08-03T21:21:49.201Z,74.35
2022-08-03T21:24:17.700Z,75.09
2022-08-03T21:26:47.414Z,74.53
2022-08-03T21:29:16.821Z,74.74
2022-08-03T21:31:43.674Z,75.47
2022-08-03T21:34:10.333Z,75.81
2022-08-03T21:36:37.748Z,76.16
2022-08-03T21:39:08.082Z,76.34
2022-08-03T21:41:36.345Z,76.24
2022-08-03T21:44:04.099Z,76.80
2022-08-03T21:46:35.633Z,76.84
2022-08-03T21:50:07.692Z,77.49
2022-08-03T21:51:54.447Z,76.91
2022-08-03T21:54:26.482Z,77.12
2022-08-03T21:56:56.187Z,76.67
2022-08-03T21:59:23.582Z,77.14
2022-08-03T22:01:55.286Z,77.75
2022-08-03T22:04:50.692Z,77.59
2022-08-03T22:07:12.845Z,77.76
2022-08-03T22:09:40.233Z,77.74
2022-08-03T22:12:23.779Z,77.96
2022-08-03T22:15:01.028Z,77.78
2022-08-03T22:17:55.884Z,78.25
2022-08-03T22:20:19.416Z,78.43
2022-08-03T22:22:55.208Z,78.19
2022-08-03T22:25:29.211Z,78.51
2022-08-03T22:27:58.914Z,78.13
2022-08-03T22:30:25.906Z,77.68
2022-08-03T22:32:54.953Z,77.88
2022-08-03T22:35:23.990Z,78.07
2022-08-03T22:37:53.901Z,78.09
2022-08-03T22:40:20.641Z,78.23
2022-08-03T22:42:52.315Z,78.53
2022-08-03T22:46:07.892Z,79.08
2022-08-03T22:48:08.232Z,78.81
2022-08-03T22:50:35.447Z,79.36
2022-08-03T22:53:02.449Z,79.35
2022-08-03T22:55:29.214Z,79.07
2022-08-03T22:57:56.528Z,79.67
2022-08-03T23:00:23.760Z,79.96
2022-08-03T23:02:52.051Z,80.29
2022-08-03T23:06:00.725Z,80.92
2022-08-03T23:08:18.532Z,80.62
2022-08-03T23:10:47.534Z,80.98
2022-08-03T23:13:18.834Z,81.09
2022-08-03T23:15:57.124Z,81.62
2022-08-03T23:18:25.095Z,81.94
2022-08-03T23:20:53.148Z,82.29
2022-08-03T23:23:20.917Z,82.19
2022-08-03T23:25:50.402Z,82.58
2022-08-03T23:28:17.911Z,82.65
2022-08-03T23:30:46.865Z,83.10
2022-08-03T23:33:16.465Z,83.39
2022-08-03T23:36:28.210Z,83.91
2022-08-03T23:38:54.425Z,84.29
2022-08-03T23:41:22.152Z,85.27
2022-08-03T23:43:53.700Z,85.69
2022-08-03T23:46:23.726Z,85.89
2022-08-03T23:48:51.107Z,85.97
2022-08-03T23:51:33.905Z,86.81
2022-08-03T23:54:14.899Z,86.88
2022-08-03T23:56:59.731Z,87.23
2022-08-03T23:59:35.983Z,87.38
